»·PEaware :: N448RA KVBG-KBFL

N448RA :: KVBG-KBFL

FLIGHT INFORMATION

Flight Status: Arrived
Operator: Privately registered:
United States
More flights under this callsign
Pilot: Scott M. (16181)
Aircraft: Unknown
(KODI)
More flights by this aircraft type
Origin: KVBG Vandenberg AFB
United States
Destination: KBFL Meadows
United States
More flights between these airports :: More routes between these airports
Route:
File this flight plan on PilotEdge
Remarks:
Altitude:
(Current/Filed)
7,500ft
Speed:
(Current/Filed)
125kts
Departed: 26-Sep-17 04:09 PM
Arrived: 26-Sep-17 05:20 PM
Distance/Time
Traveled:
86nm/1:11
Distance/Time
To Go:
Arrived

Flight Plot

Page will automatically refresh every two minutes.

Flight plan parsing failed; only flown route is shown


Map Options




Map Legend


Flown Route
Filed Route
Departure Airport
Arrival Airport
Navaid (VOR, NDB)
Fix

Horizontal Profiles

Position Reports

Time Latitude Longitude Heading Altitude Ground
Speed
26-Sep-17 16:06 34.731417 -120.569215 226 374ft 0kts
26-Sep-17 16:07 34.731417 -120.569215 226 374ft 0kts
26-Sep-17 16:08 34.731418 -120.569215 226 374ft 0kts
26-Sep-17 16:09 34.731370 -120.569262 208 373ft 4kts
26-Sep-17 16:10 34.728908 -120.568557 137 373ft 20kts
26-Sep-17 16:11 34.725697 -120.565415 164 373ft 23kts
26-Sep-17 16:12 34.723990 -120.565524 198 373ft 0kts
26-Sep-17 16:13 34.729029 -120.574785 319 613ft 105kts
26-Sep-17 16:14 34.746360 -120.596170 332 1340ft 119kts
26-Sep-17 16:15 34.751004 -120.581222 140 1659ft 120kts
26-Sep-17 16:16 34.748124 -120.555026 72 2574ft 131kts
26-Sep-17 16:17 34.757042 -120.524504 65 3666ft 136kts
26-Sep-17 16:18 34.768513 -120.494987 62 4730ft 134kts
26-Sep-17 16:19 34.780646 -120.467041 60 5798ft 128kts
26-Sep-17 16:20 34.793248 -120.439405 58 6890ft 131kts
26-Sep-17 16:21 34.805143 -120.413858 58 7499ft 128kts
26-Sep-17 16:22 34.817358 -120.387875 58 7506ft 142kts
26-Sep-17 16:23 34.830242 -120.360473 58 7496ft 138kts
26-Sep-17 16:24 34.841924 -120.335682 59 7637ft 125kts
26-Sep-17 16:25 34.854360 -120.309341 58 7645ft 133kts
26-Sep-17 16:26 34.867157 -120.282213 59 7642ft 136kts
26-Sep-17 16:27 34.880084 -120.254807 58 7640ft 134kts
26-Sep-17 16:28 34.892699 -120.227940 58 7641ft 133kts
26-Sep-17 16:29 34.905103 -120.201672 59 7641ft 133kts
26-Sep-17 16:30 34.917036 -120.176201 58 7642ft 133kts
26-Sep-17 16:31 34.928920 -120.151020 58 7640ft 133kts
26-Sep-17 16:32 34.940627 -120.126079 59 7641ft 133kts
26-Sep-17 16:33 34.952259 -120.101243 59 7641ft 133kts
26-Sep-17 16:34 34.963808 -120.076665 58 7640ft 133kts
26-Sep-17 16:35 34.975354 -120.051961 58 7641ft 133kts
26-Sep-17 16:36 34.986905 -120.027230 58 7640ft 133kts
26-Sep-17 16:37 34.999566 -120.000182 57 7644ft 134kts
26-Sep-17 16:38 35.012182 -119.973278 58 7640ft 136kts
26-Sep-17 16:39 35.024539 -119.946743 58 7642ft 136kts
26-Sep-17 16:40 35.036591 -119.920972 58 7640ft 137kts
26-Sep-17 16:41 35.048773 -119.894940 58 7638ft 134kts
26-Sep-17 16:42 35.060579 -119.869490 58 7640ft 133kts
26-Sep-17 16:43 35.071876 -119.845292 58 7642ft 135kts
26-Sep-17 16:44 35.083040 -119.821274 59 7640ft 134kts
26-Sep-17 16:45 35.092414 -119.801192 59 7641ft 133kts
26-Sep-17 16:46 35.104378 -119.775421 58 7641ft 133kts
26-Sep-17 16:47 35.113807 -119.755066 57 7630ft 131kts
26-Sep-17 16:48 35.126862 -119.727003 59 6973ft 135kts
26-Sep-17 16:49 35.136280 -119.706760 59 6474ft 131kts
26-Sep-17 16:50 35.147306 -119.682966 58 5868ft 129kts
26-Sep-17 16:51 35.158233 -119.659382 59 5645ft 128kts
26-Sep-17 16:52 35.169812 -119.634322 58 5643ft 130kts
26-Sep-17 16:53 35.181524 -119.609002 59 5641ft 130kts
26-Sep-17 16:54 35.193346 -119.583406 58 5642ft 129kts
26-Sep-17 16:55 35.207008 -119.553826 60 5642ft 130kts
26-Sep-17 16:56 35.216285 -119.533683 59 5626ft 127kts
26-Sep-17 16:57 35.227372 -119.509675 59 5026ft 129kts
26-Sep-17 16:58 35.238098 -119.486450 58 4388ft 121kts
26-Sep-17 16:59 35.248165 -119.464600 59 3790ft 122kts
26-Sep-17 17:00 35.258124 -119.442941 58 3657ft 114kts
26-Sep-17 17:01 35.268184 -119.421082 58 3666ft 121kts
26-Sep-17 17:02 35.278446 -119.398776 59 3661ft 125kts
26-Sep-17 17:03 35.287605 -119.378702 58 3659ft 123kts
26-Sep-17 17:04 35.296816 -119.358662 59 3660ft 122kts
26-Sep-17 17:05 35.305721 -119.339271 59 3661ft 122kts
26-Sep-17 17:06 35.315996 -119.316887 59 3660ft 121kts
26-Sep-17 17:07 35.326155 -119.294713 59 3660ft 119kts
26-Sep-17 17:08 35.336222 -119.272772 58 3660ft 118kts
26-Sep-17 17:09 35.345969 -119.251461 59 3658ft 115kts
26-Sep-17 17:10 35.355795 -119.230006 57 3661ft 112kts
26-Sep-17 17:11 35.366080 -119.209386 53 3447ft 116kts
26-Sep-17 17:12 35.377790 -119.191236 49 3013ft 110kts
26-Sep-17 17:13 35.390501 -119.175346 40 2502ft 101kts
26-Sep-17 17:14 35.404091 -119.160763 48 2019ft 101kts
26-Sep-17 17:15 35.412160 -119.142837 65 1675ft 93kts
26-Sep-17 17:16 35.417607 -119.123469 69 1480ft 120kts
26-Sep-17 17:17 35.423647 -119.099163 74 1686ft 112kts
26-Sep-17 17:18 35.421710 -119.079352 123 1649ft 95kts
26-Sep-17 17:19 35.412259 -119.065555 118 1458ft 78kts
26-Sep-17 17:20 35.403651 -119.050296 123 1413ft 86kts
26-Sep-17 17:21 35.403011 -119.035101 44 1352ft 83kts
26-Sep-17 17:22 35.414287 -119.032624 309 1030ft 84kts
26-Sep-17 17:23 35.424708 -119.045222 322 764ft 80kts
26-Sep-17 17:24 35.434677 -119.057133 314 510ft 21kts
26-Sep-17 17:25 35.436266 -119.057769 64 510ft 0kts
26-Sep-17 17:26 35.435598 -119.056080 134 511ft 23kts
26-Sep-17 17:27 35.432232 -119.052038 134 510ft 19kts
26-Sep-17 17:28 35.429996 -119.048118 75 511ft 10kts

Navigation Log

Ident Type
Flight plan parsing failed, navigation log unavailable